createdAt,value
2023-05-05T00:00:28.558Z,80.51
2023-05-05T00:01:30.468Z,80.49
2023-05-05T00:02:32.226Z,80.51
2023-05-05T00:03:35.442Z,80.64
2023-05-05T00:04:37.276Z,80.63
2023-05-05T00:05:38.891Z,81.01
2023-05-05T00:06:40.523Z,80.82
2023-05-05T00:07:42.263Z,80.64
2023-05-05T00:08:43.963Z,80.88
2023-05-05T00:09:45.734Z,80.67
2023-05-05T00:10:48.005Z,80.49
2023-05-05T00:11:49.607Z,80.78
2023-05-05T00:12:51.290Z,81.09
2023-05-05T00:13:52.952Z,80.98
2023-05-05T00:14:54.574Z,81.09
2023-05-05T00:15:56.194Z,80.78
2023-05-05T00:16:57.879Z,80.97
2023-05-05T00:17:59.567Z,80.55
2023-05-05T00:19:01.295Z,80.39
2023-05-05T00:20:03.274Z,80.51
2023-05-05T00:21:04.855Z,80.26
2023-05-05T00:22:07.419Z,80.31
2023-05-05T00:23:09.015Z,80.23
2023-05-05T00:24:10.837Z,80.18
2023-05-05T00:25:12.539Z,80.24
2023-05-05T00:26:14.489Z,80.14
2023-05-05T00:27:16.143Z,79.95
2023-05-05T00:28:17.721Z,80.02
2023-05-05T00:29:19.296Z,79.94
2023-05-05T00:30:20.930Z,80.11
2023-05-05T00:31:22.856Z,79.97
2023-05-05T00:32:24.441Z,80.12
2023-05-05T00:33:26.047Z,80.03
2023-05-05T00:34:27.629Z,80.17
2023-05-05T00:35:29.315Z,80.01
2023-05-05T00:36:31.207Z,79.17
2023-05-05T00:37:32.937Z,79.59
2023-05-05T00:38:34.522Z,79.58
2023-05-05T00:39:36.098Z,79.72
2023-05-05T00:40:38.314Z,80.16
2023-05-05T00:41:40.854Z,80.36
2023-05-05T00:42:43.868Z,80.01
2023-05-05T00:43:45.423Z,80.23
2023-05-05T00:44:47.073Z,80.06
2023-05-05T00:45:48.739Z,80.90
2023-05-05T00:46:50.365Z,80.88
2023-05-05T00:47:55.209Z,80.27
2023-05-05T00:48:56.911Z,80.05
2023-05-05T00:49:58.543Z,80.35
2023-05-05T00:51:00.130Z,79.93
2023-05-05T00:52:01.965Z,80.01
2023-05-05T00:53:04.797Z,79.85
2023-05-05T00:54:06.396Z,80.35
2023-05-05T00:55:08.391Z,79.97
2023-05-05T00:56:10.010Z,79.73
2023-05-05T00:57:11.625Z,80.08
2023-05-05T00:58:13.661Z,79.42
2023-05-05T00:59:15.342Z,79.44
2023-05-05T01:00:18.039Z,79.25
2023-05-05T01:01:19.726Z,78.76
2023-05-05T01:02:22.809Z,78.57
2023-05-05T01:03:24.485Z,79.37
2023-05-05T01:04:27.025Z,78.98
2023-05-05T01:05:29.387Z,79.17
2023-05-05T01:06:59.850Z,79.09
2023-05-05T01:08:35.351Z,79.21
2023-05-05T01:10:19.592Z,79.42
2023-05-05T01:11:27.210Z,79.32
2023-05-05T01:13:01.521Z,79.18
2023-05-05T01:14:13.629Z,79.56
2023-05-05T01:15:17.871Z,79.16
2023-05-05T01:16:27.668Z,78.81
2023-05-05T01:17:38.754Z,79.25
2023-05-05T01:19:01.219Z,79.14
2023-05-05T01:20:12.463Z,78.91
2023-05-05T01:21:37.821Z,78.38
2023-05-05T01:22:46.802Z,78.51
2023-05-05T01:24:18.663Z,78.56
2023-05-05T01:25:31.241Z,78.66
2023-05-05T01:26:38.662Z,78.05
2023-05-05T01:27:49.586Z,78.18
2023-05-05T01:29:20.529Z,78.25
2023-05-05T01:30:43.729Z,78.60
2023-05-05T01:31:57.841Z,77.77
2023-05-05T01:33:04.084Z,77.58
2023-05-05T01:34:07.683Z,77.66
2023-05-05T01:35:09.574Z,77.75
2023-05-05T01:36:13.566Z,77.14
2023-05-05T01:37:27.076Z,78.74
2023-05-05T01:38:33.944Z,77.92
2023-05-05T01:39:35.708Z,77.43
2023-05-05T01:41:11.555Z,77.16
2023-05-05T01:42:15.992Z,77.83
2023-05-05T01:43:19.050Z,78.09
2023-05-05T01:44:20.620Z,78.41
2023-05-05T01:45:23.561Z,78.21
2023-05-05T01:46:25.712Z,78.47
2023-05-05T01:47:27.356Z,78.99
2023-05-05T01:48:30.053Z,78.53
2023-05-05T01:49:31.755Z,78.52
2023-05-05T01:50:33.554Z,77.98
2023-05-05T01:51:35.168Z,79.08
2023-05-05T01:52:37.702Z,78.34
2023-05-05T01:53:39.386Z,78.60
2023-05-05T01:54:41.365Z,78.84
2023-05-05T01:55:42.994Z,78.55
2023-05-05T01:56:44.569Z,79.25
2023-05-05T01:57:46.322Z,78.36
2023-05-05T01:58:47.979Z,78.87
2023-05-05T01:59:49.523Z,79.03
2023-05-05T02:00:51.491Z,79.17
2023-05-05T02:01:53.104Z,78.93
2023-05-05T02:02:55.229Z,78.97
2023-05-05T02:03:57.245Z,79.07
2023-05-05T02:04:58.849Z,79.25
2023-05-05T02:06:00.487Z,78.92
2023-05-05T02:07:02.464Z,79.17
2023-05-05T02:08:04.300Z,79.14
2023-05-05T02:09:06.162Z,79.21
2023-05-05T02:10:08.282Z,78.60
2023-05-05T02:11:10.206Z,79.37
2023-05-05T02:12:11.831Z,79.27
2023-05-05T02:13:13.651Z,79.14
2023-05-05T02:14:15.390Z,79.44
2023-05-05T02:15:16.985Z,79.48
2023-05-05T02:16:18.713Z,78.93
2023-05-05T02:17:20.481Z,78.59
2023-05-05T02:18:22.592Z,77.84
2023-05-05T02:19:31.942Z,78.75
2023-05-05T02:20:33.749Z,77.66
2023-05-05T02:21:35.337Z,77.54
2023-05-05T02:22:36.960Z,78.33
2023-05-05T02:23:38.661Z,78.98
2023-05-05T02:24:40.369Z,79.37
2023-05-05T02:25:43.591Z,78.78
2023-05-05T02:26:45.875Z,78.47
2023-05-05T02:27:47.471Z,78.01
2023-05-05T02:28:52.805Z,79.35
2023-05-05T02:29:57.880Z,78.14
2023-05-05T02:30:59.792Z,79.08
2023-05-05T02:32:14.625Z,79.13
2023-05-05T02:33:16.235Z,78.30
2023-05-05T02:34:24.097Z,79.03
2023-05-05T02:35:29.803Z,79.23
2023-05-05T02:36:32.574Z,79.35
2023-05-05T02:37:34.223Z,79.48
2023-05-05T02:38:35.837Z,79.92
2023-05-05T02:39:43.608Z,78.91
2023-05-05T02:40:46.267Z,79.05
2023-05-05T02:41:47.821Z,78.93
2023-05-05T02:42:49.417Z,79.60
2023-05-05T02:43:51.105Z,79.78
2023-05-05T02:44:53.767Z,80.14
2023-05-05T02:45:55.468Z,79.98
2023-05-05T02:46:57.693Z,79.62
2023-05-05T02:48:04.160Z,79.88
2023-05-05T02:49:05.920Z,80.07
2023-05-05T02:50:08.348Z,80.00
2023-05-05T02:51:10.205Z,79.74
2023-05-05T02:52:11.793Z,79.80
2023-05-05T02:53:13.368Z,79.62
2023-05-05T02:54:15.046Z,79.84
2023-05-05T02:55:16.731Z,79.38
2023-05-05T02:56:48.027Z,79.79
2023-05-05T02:58:12.674Z,79.07
2023-05-05T02:59:15.985Z,78.43
2023-05-05T03:00:24.611Z,78.45
2023-05-05T03:01:39.435Z,78.70
2023-05-05T03:02:44.929Z,78.80
2023-05-05T03:04:16.370Z,78.46
2023-05-05T03:05:21.384Z,78.95
2023-05-05T03:06:23.219Z,78.88
2023-05-05T03:07:42.971Z,80.40
2023-05-05T03:08:49.134Z,79.30
2023-05-05T03:10:11.136Z,79.81
2023-05-05T03:11:35.189Z,79.78
2023-05-05T03:12:47.183Z,79.95
2023-05-05T03:13:51.351Z,80.49
2023-05-05T03:14:53.018Z,80.80
2023-05-05T03:15:54.703Z,80.40
2023-05-05T03:16:56.715Z,80.29
2023-05-05T03:17:58.491Z,80.84
2023-05-05T03:19:00.185Z,80.95
2023-05-05T03:20:03.641Z,80.95
2023-05-05T03:21:08.852Z,81.01
2023-05-05T03:22:10.570Z,80.64
2023-05-05T03:23:13.431Z,81.45
2023-05-05T03:24:19.364Z,81.42
2023-05-05T03:25:21.002Z,81.27
2023-05-05T03:26:22.614Z,81.35
2023-05-05T03:27:24.212Z,82.00
2023-05-05T03:28:25.839Z,82.00
2023-05-05T03:29:29.594Z,81.94
2023-05-05T03:30:31.176Z,82.08
2023-05-05T03:31:32.952Z,81.67
2023-05-05T03:32:34.660Z,81.48
2023-05-05T03:33:36.241Z,81.55
2023-05-05T03:34:38.007Z,81.36
2023-05-05T03:35:39.625Z,81.66
2023-05-05T03:36:41.390Z,81.54
2023-05-05T03:37:43.180Z,81.69
2023-05-05T03:38:44.883Z,81.68
2023-05-05T03:39:46.490Z,81.47
2023-05-05T03:40:48.065Z,81.27
2023-05-05T03:41:49.694Z,81.25
2023-05-05T03:42:51.270Z,81.42
2023-05-05T03:43:52.894Z,81.42
2023-05-05T03:44:54.564Z,81.14
2023-05-05T03:45:56.252Z,81.12
2023-05-05T03:46:57.941Z,81.28
2023-05-05T03:47:59.585Z,80.94
2023-05-05T03:49:01.311Z,81.67
2023-05-05T03:50:02.907Z,81.61
2023-05-05T03:51:04.509Z,81.51
2023-05-05T03:52:06.396Z,81.78
2023-05-05T03:53:08.143Z,81.66
2023-05-05T03:54:09.889Z,81.90
2023-05-05T03:55:11.469Z,81.87
2023-05-05T03:56:13.096Z,82.14
2023-05-05T03:57:14.698Z,82.11
2023-05-05T03:58:16.792Z,81.99
2023-05-05T03:59:18.394Z,81.88
2023-05-05T04:00:19.992Z,81.59
2023-05-05T04:01:21.725Z,81.80
2023-05-05T04:02:23.356Z,81.51
2023-05-05T04:03:25.224Z,81.46
2023-05-05T04:04:27.130Z,81.41
2023-05-05T04:05:28.798Z,81.24
2023-05-05T04:06:31.926Z,81.15
2023-05-05T04:07:33.751Z,81.01
2023-05-05T04:08:35.391Z,81.26
2023-05-05T04:09:39.219Z,81.47
2023-05-05T04:10:40.808Z,81.59
2023-05-05T04:11:42.488Z,81.38
2023-05-05T04:12:44.137Z,80.85
2023-05-05T04:13:46.370Z,80.85
2023-05-05T04:14:47.996Z,80.58
2023-05-05T04:15:49.633Z,80.58
2023-05-05T04:16:51.231Z,80.56
2023-05-05T04:17:52.960Z,80.41
2023-05-05T04:18:55.480Z,80.25
2023-05-05T04:19:57.129Z,79.83
2023-05-05T04:20:58.759Z,79.96
2023-05-05T04:22:00.559Z,80.32
2023-05-05T04:23:02.202Z,80.35
2023-05-05T04:24:04.249Z,80.19
2023-05-05T04:25:06.757Z,80.09
2023-05-05T04:26:08.337Z,79.92
2023-05-05T04:27:09.994Z,79.25
2023-05-05T04:28:11.633Z,78.67
2023-05-05T04:29:13.216Z,79.51
2023-05-05T04:30:15.096Z,80.06
2023-05-05T04:31:16.817Z,79.89
2023-05-05T04:32:18.407Z,79.65
2023-05-05T04:33:20.056Z,78.70
2023-05-05T04:34:22.406Z,78.31
2023-05-05T04:35:24.069Z,77.86
2023-05-05T04:36:26.102Z,77.69
2023-05-05T04:37:27.700Z,78.40
2023-05-05T04:38:29.292Z,78.61
2023-05-05T04:39:31.434Z,78.81
2023-05-05T04:40:33.073Z,78.52
2023-05-05T04:41:34.831Z,78.15
2023-05-05T04:42:36.848Z,78.38
2023-05-05T04:43:38.460Z,78.22
2023-05-05T04:44:40.049Z,77.37
2023-05-05T04:45:41.743Z,77.72
2023-05-05T04:46:43.369Z,77.62
2023-05-05T04:47:45.006Z,77.23
2023-05-05T04:48:46.665Z,77.09
2023-05-05T04:49:48.280Z,75.94
2023-05-05T04:50:49.873Z,75.34
2023-05-05T04:51:51.545Z,74.69
2023-05-05T04:52:53.154Z,69.02
2023-05-05T04:53:54.964Z,68.18
2023-05-05T04:54:56.544Z,69.83
2023-05-05T04:56:00.138Z,70.22
2023-05-05T04:57:02.247Z,70.64
2023-05-05T04:58:03.905Z,70.29
2023-05-05T04:59:06.068Z,72.36
2023-05-05T05:00:08.755Z,73.13
2023-05-05T05:01:10.569Z,71.56
2023-05-05T05:02:12.335Z,69.74
2023-05-05T05:03:14.068Z,68.61
2023-05-05T05:04:18.607Z,69.26
2023-05-05T05:05:21.655Z,67.59
2023-05-05T05:06:23.590Z,67.46
2023-05-05T05:07:26.098Z,67.40
2023-05-05T05:08:27.694Z,67.08
2023-05-05T05:09:29.295Z,67.03
2023-05-05T05:10:30.922Z,65.94
2023-05-05T05:11:32.593Z,64.45
2023-05-05T05:12:34.317Z,63.74
2023-05-05T05:13:35.941Z,62.75
2023-05-05T05:14:38.271Z,61.20
2023-05-05T05:15:40.721Z,59.93
2023-05-05T05:16:42.468Z,60.64
2023-05-05T05:17:44.205Z,60.79
2023-05-05T05:18:46.019Z,60.65
2023-05-05T05:19:47.602Z,60.38
2023-05-05T05:20:49.181Z,59.94
2023-05-05T05:21:51.091Z,58.06
2023-05-05T05:22:52.680Z,57.61
2023-05-05T05:23:54.305Z,57.13
2023-05-05T05:24:55.905Z,53.82
2023-05-05T05:25:57.575Z,53.55
2023-05-05T05:26:59.159Z,53.42
2023-05-05T05:28:09.699Z,52.25
2023-05-05T05:29:12.520Z,52.13
2023-05-05T05:30:14.350Z,52.67
2023-05-05T05:31:15.936Z,52.17
2023-05-05T05:32:17.595Z,51.50
2023-05-05T05:33:19.881Z,52.56
2023-05-05T05:34:21.522Z,52.79
2023-05-05T05:35:23.113Z,53.29
2023-05-05T05:36:24.757Z,54.37
2023-05-05T05:37:31.065Z,53.81
2023-05-05T05:38:33.357Z,55.43
2023-05-05T05:39:35.006Z,55.97
2023-05-05T05:40:37.273Z,54.78
2023-05-05T05:41:39.035Z,56.64
2023-05-05T05:42:41.336Z,57.18
2023-05-05T05:43:42.976Z,55.75
2023-05-05T05:44:44.699Z,57.23
2023-05-05T05:45:46.398Z,55.35
2023-05-05T05:46:48.002Z,54.26
2023-05-05T05:47:49.715Z,55.13
2023-05-05T05:48:51.299Z,55.70
2023-05-05T05:49:53.530Z,56.80
2023-05-05T05:50:56.224Z,56.36
2023-05-05T05:51:57.848Z,54.72
2023-05-05T05:52:59.422Z,55.95
2023-05-05T05:54:01.059Z,56.14
2023-05-05T05:55:02.963Z,57.04
2023-05-05T05:56:04.859Z,57.93
2023-05-05T05:57:06.991Z,57.92
2023-05-05T05:58:08.734Z,57.44
2023-05-05T05:59:10.438Z,56.97
2023-05-05T06:00:13.379Z,56.14
2023-05-05T06:01:16.042Z,55.67
2023-05-05T06:02:17.880Z,55.67
2023-05-05T06:03:19.698Z,55.32
2023-05-05T06:04:21.517Z,54.85
2023-05-05T06:05:23.197Z,55.55
2023-05-05T06:06:25.005Z,54.04
2023-05-05T06:07:26.693Z,54.70
2023-05-05T06:08:28.366Z,55.05
2023-05-05T06:09:29.953Z,54.10
2023-05-05T06:10:32.010Z,54.27
2023-05-05T06:11:35.141Z,54.92
2023-05-05T06:12:36.744Z,54.51
2023-05-05T06:13:38.344Z,54.70
2023-05-05T06:14:40.006Z,53.76
2023-05-05T06:15:41.665Z,54.82
2023-05-05T06:16:44.274Z,54.34
2023-05-05T06:17:46.028Z,53.66
2023-05-05T06:18:47.716Z,53.89
2023-05-05T06:19:49.315Z,53.99
2023-05-05T06:20:51.138Z,53.48
2023-05-05T06:21:52.925Z,53.73
2023-05-05T06:22:54.486Z,54.92
2023-05-05T06:23:56.151Z,54.86
2023-05-05T06:24:57.764Z,55.14
2023-05-05T06:25:59.363Z,55.71
2023-05-05T06:27:02.361Z,56.24
2023-05-05T06:28:05.774Z,54.99
2023-05-05T06:29:07.502Z,54.60
2023-05-05T06:30:09.789Z,55.32
2023-05-05T06:31:13.066Z,54.17
2023-05-05T06:32:14.694Z,53.96
2023-05-05T06:33:16.721Z,54.25
2023-05-05T06:34:18.415Z,54.64
2023-05-05T06:35:20.665Z,55.04
2023-05-05T06:36:22.243Z,53.99
2023-05-05T06:37:23.832Z,53.78
2023-05-05T06:38:25.532Z,53.48
2023-05-05T06:39:27.178Z,53.58
2023-05-05T06:40:28.763Z,53.94
2023-05-05T06:41:30.458Z,54.57
2023-05-05T06:42:32.320Z,54.04
2023-05-05T06:43:33.897Z,54.07
2023-05-05T06:44:36.566Z,54.41
2023-05-05T06:45:38.172Z,54.61
2023-05-05T06:46:39.809Z,54.58
2023-05-05T06:47:42.440Z,54.81
2023-05-05T06:48:44.160Z,55.52
2023-05-05T06:49:45.795Z,55.94
2023-05-05T06:50:47.436Z,54.77
2023-05-05T06:51:49.046Z,55.36
2023-05-05T06:52:50.764Z,56.09
2023-05-05T06:53:52.765Z,56.18
2023-05-05T06:54:54.413Z,57.29
2023-05-05T06:55:56.068Z,55.64
2023-05-05T06:56:59.472Z,55.16
2023-05-05T06:58:01.331Z,55.50
2023-05-05T06:59:02.997Z,55.19
2023-05-05T07:00:06.079Z,55.71
2023-05-05T07:01:08.062Z,55.80
2023-05-05T07:02:09.802Z,56.46
2023-05-05T07:03:11.734Z,55.62
2023-05-05T07:04:13.537Z,55.91
2023-05-05T07:05:15.200Z,55.36
2023-05-05T07:06:17.094Z,54.97
2023-05-05T07:07:18.839Z,55.79
2023-05-05T07:08:20.459Z,54.96
2023-05-05T07:09:22.058Z,55.13
2023-05-05T07:10:24.274Z,55.26
2023-05-05T07:11:26.096Z,54.08
2023-05-05T07:12:29.294Z,54.29
2023-05-05T07:13:30.927Z,56.01
2023-05-05T07:14:32.518Z,55.99
2023-05-05T07:15:34.204Z,54.48
2023-05-05T07:16:37.311Z,54.92
2023-05-05T07:17:39.093Z,55.28
2023-05-05T07:18:40.853Z,55.39
2023-05-05T07:19:43.163Z,54.68
2023-05-05T07:20:44.776Z,55.27
2023-05-05T07:21:47.324Z,54.14
2023-05-05T07:22:48.998Z,55.50
2023-05-05T07:23:50.681Z,55.90
2023-05-05T07:24:53.472Z,56.36
2023-05-05T07:25:55.081Z,55.01
2023-05-05T07:26:57.477Z,55.80
2023-05-05T07:27:59.123Z,56.18
2023-05-05T07:29:02.440Z,55.18
2023-05-05T07:30:07.883Z,55.22
2023-05-05T07:31:11.822Z,55.52
2023-05-05T07:32:13.685Z,55.08
2023-05-05T07:33:15.938Z,55.47
2023-05-05T07:34:17.568Z,56.85
2023-05-05T07:35:19.276Z,56.45
2023-05-05T07:36:20.880Z,56.08
2023-05-05T07:37:22.497Z,55.98
2023-05-05T07:38:25.708Z,56.02
2023-05-05T07:39:27.345Z,56.84
2023-05-05T07:40:29.076Z,56.28
2023-05-05T07:41:30.860Z,56.91
2023-05-05T07:42:32.472Z,57.56
2023-05-05T07:43:34.121Z,56.30
2023-05-05T07:44:35.730Z,57.03
2023-05-05T07:45:37.315Z,56.94
2023-05-05T07:46:38.990Z,57.03
2023-05-05T07:47:40.871Z,56.75
2023-05-05T07:48:42.532Z,56.87
2023-05-05T07:49:44.396Z,57.02
2023-05-05T07:50:46.193Z,57.52
2023-05-05T07:51:50.193Z,56.56
2023-05-05T07:52:59.281Z,57.25
2023-05-05T07:54:12.304Z,56.73
2023-05-05T07:55:13.963Z,56.80
2023-05-05T07:56:15.746Z,56.85
2023-05-05T07:57:17.317Z,56.58
2023-05-05T07:58:18.890Z,56.21
2023-05-05T07:59:20.875Z,56.29
2023-05-05T08:00:22.721Z,56.91
2023-05-05T08:01:24.343Z,56.58
2023-05-05T08:02:26.085Z,56.88
2023-05-05T08:03:28.044Z,57.20
2023-05-05T08:04:29.884Z,56.79
2023-05-05T08:05:31.531Z,57.36
2023-05-05T08:06:33.626Z,57.49
2023-05-05T08:07:36.636Z,57.44
2023-05-05T08:08:38.236Z,57.13
2023-05-05T08:09:39.887Z,57.43
2023-05-05T08:10:41.596Z,57.55
2023-05-05T08:11:43.364Z,56.83
2023-05-05T08:12:45.048Z,56.82
2023-05-05T08:13:46.993Z,57.31
2023-05-05T08:14:48.561Z,57.02
2023-05-05T08:15:50.186Z,56.92
2023-05-05T08:16:51.786Z,55.53
2023-05-05T08:17:55.816Z,56.10
2023-05-05T08:18:57.435Z,55.94
2023-05-05T08:19:59.085Z,56.37
2023-05-05T08:21:00.676Z,55.74
2023-05-05T08:22:02.253Z,56.66
2023-05-05T08:23:03.963Z,56.99
2023-05-05T08:24:05.767Z,56.14
2023-05-05T08:25:08.035Z,57.14
2023-05-05T08:26:09.901Z,56.14
2023-05-05T08:27:11.527Z,56.04
2023-05-05T08:28:13.106Z,56.72
2023-05-05T08:29:14.705Z,56.41
2023-05-05T08:30:19.678Z,56.14
2023-05-05T08:31:22.001Z,56.93
2023-05-05T08:32:23.682Z,57.24
2023-05-05T08:33:25.567Z,56.89
2023-05-05T08:34:27.408Z,55.70
2023-05-05T08:35:29.132Z,56.00
2023-05-05T08:36:31.092Z,56.83
2023-05-05T08:37:32.865Z,56.55
2023-05-05T08:38:34.478Z,55.90
2023-05-05T08:39:36.110Z,55.66
2023-05-05T08:40:38.363Z,56.37
2023-05-05T08:41:40.144Z,56.13
2023-05-05T08:42:42.199Z,55.93
2023-05-05T08:43:44.507Z,56.35
2023-05-05T08:44:46.222Z,56.57
2023-05-05T08:45:47.809Z,56.08
2023-05-05T08:46:49.581Z,56.13
2023-05-05T08:47:51.342Z,56.66
2023-05-05T08:48:53.107Z,57.16
2023-05-05T08:49:54.667Z,56.30
2023-05-05T08:51:00.313Z,55.94
2023-05-05T08:52:04.726Z,55.44
2023-05-05T08:53:10.865Z,55.18
2023-05-05T08:54:18.337Z,55.76
2023-05-05T08:55:26.910Z,55.13
2023-05-05T08:56:33.595Z,55.42
2023-05-05T08:58:03.127Z,55.08
2023-05-05T08:59:04.782Z,55.23
2023-05-05T09:00:08.057Z,55.83
2023-05-05T09:01:10.551Z,57.27
2023-05-05T09:02:12.276Z,56.33
2023-05-05T09:03:14.066Z,55.58
2023-05-05T09:04:16.065Z,56.01
2023-05-05T09:05:17.846Z,54.85
2023-05-05T09:06:23.569Z,55.19
2023-05-05T09:07:25.466Z,55.37
2023-05-05T09:08:27.080Z,54.99
2023-05-05T09:09:28.665Z,55.11
2023-05-05T09:10:30.280Z,55.03
2023-05-05T09:11:32.472Z,54.01
2023-05-05T09:12:34.227Z,54.39
2023-05-05T09:15:13.478Z,54.90
2023-05-05T09:16:15.101Z,55.18
2023-05-05T09:17:26.389Z,55.46
2023-05-05T09:18:28.622Z,54.72
2023-05-05T09:19:30.449Z,53.92
2023-05-05T09:20:35.938Z,53.93
2023-05-05T09:21:38.173Z,54.43
2023-05-05T09:22:44.094Z,54.73
2023-05-05T09:24:09.314Z,56.38
2023-05-05T09:25:12.427Z,54.83
2023-05-05T09:26:14.531Z,54.71
2023-05-05T09:27:21.939Z,54.45
2023-05-05T09:28:23.546Z,53.74
2023-05-05T09:29:25.118Z,55.28
2023-05-05T09:30:27.227Z,54.31
2023-05-05T09:31:30.810Z,53.80
2023-05-05T09:32:45.861Z,54.12
2023-05-05T09:33:47.608Z,53.69
2023-05-05T09:34:59.188Z,53.80
2023-05-05T09:36:00.855Z,54.35
2023-05-05T09:37:02.449Z,54.73
2023-05-05T09:38:13.101Z,54.96
2023-05-05T09:39:18.692Z,54.78
2023-05-05T09:40:20.811Z,54.62
2023-05-05T09:41:36.871Z,54.92
2023-05-05T09:42:39.200Z,54.69
2023-05-05T09:43:51.878Z,53.91
2023-05-05T09:44:54.288Z,53.54
2023-05-05T09:46:08.395Z,54.31
2023-05-05T09:47:25.907Z,53.05
2023-05-05T09:48:31.816Z,51.84
2023-05-05T09:49:33.544Z,52.51
2023-05-05T09:50:44.802Z,53.42
2023-05-05T09:51:46.693Z,53.37
2023-05-05T09:53:01.483Z,52.69
2023-05-05T09:54:03.283Z,53.28
2023-05-05T09:55:05.260Z,53.77
2023-05-05T09:56:07.448Z,54.18
2023-05-05T09:57:09.083Z,54.31
2023-05-05T09:58:18.540Z,53.14
2023-05-05T09:59:20.728Z,52.34
2023-05-05T10:00:28.003Z,52.80
2023-05-05T10:01:29.653Z,52.80
2023-05-05T10:02:38.772Z,53.86
2023-05-05T10:03:50.128Z,53.79
2023-05-05T10:04:51.767Z,53.22
2023-05-05T10:05:54.728Z,53.27
2023-05-05T10:06:57.336Z,53.36
2023-05-05T10:07:59.327Z,53.60
2023-05-05T10:09:01.530Z,53.19
2023-05-05T10:10:07.877Z,53.42
2023-05-05T10:11:09.663Z,52.66
2023-05-05T10:12:11.638Z,52.61
2023-05-05T10:13:13.332Z,53.32
2023-05-05T10:14:15.955Z,53.46
2023-05-05T10:15:17.706Z,51.84
2023-05-05T10:16:19.375Z,51.75
2023-05-05T10:17:22.442Z,53.40
2023-05-05T10:18:25.314Z,53.07
2023-05-05T10:19:27.143Z,53.33
2023-05-05T10:20:28.749Z,52.88
2023-05-05T10:21:33.632Z,52.03
2023-05-05T10:22:35.441Z,52.32
2023-05-05T10:23:45.926Z,52.56
2023-05-05T10:24:52.036Z,51.78
2023-05-05T10:25:55.768Z,51.76
2023-05-05T10:26:58.698Z,51.43
2023-05-05T10:28:01.261Z,51.19
2023-05-05T10:29:02.905Z,51.03
2023-05-05T10:30:06.256Z,51.58
2023-05-05T10:31:24.549Z,50.46
2023-05-05T10:32:57.377Z,51.06
2023-05-05T10:34:10.465Z,50.29
2023-05-05T10:35:16.075Z,51.89
2023-05-05T10:36:17.729Z,51.28
2023-05-05T10:37:19.325Z,51.46
2023-05-05T10:38:21.081Z,50.38
2023-05-05T10:39:22.740Z,50.25
2023-05-05T10:40:24.396Z,51.01
2023-05-05T10:41:29.021Z,51.53
2023-05-05T10:42:32.192Z,51.19
2023-05-05T10:43:33.920Z,51.35
2023-05-05T10:44:36.786Z,51.12
2023-05-05T10:45:38.566Z,51.57
2023-05-05T10:46:41.087Z,51.70
2023-05-05T10:47:44.348Z,50.60
2023-05-05T10:48:48.329Z,49.59
2023-05-05T10:50:14.483Z,50.19
2023-05-05T10:51:38.763Z,49.95
2023-05-05T10:52:44.625Z,49.96
2023-05-05T10:53:53.793Z,50.65
2023-05-05T10:55:16.306Z,51.05
2023-05-05T10:56:30.267Z,51.59
2023-05-05T10:57:31.901Z,50.94
2023-05-05T10:58:43.742Z,50.70
2023-05-05T10:59:53.156Z,50.22
2023-05-05T11:00:54.956Z,50.43
2023-05-05T11:01:56.686Z,50.09
2023-05-05T11:03:16.627Z,50.05
2023-05-05T11:04:19.709Z,49.99
2023-05-05T11:05:22.384Z,50.37
2023-05-05T11:06:23.997Z,49.42
2023-05-05T11:07:27.511Z,49.55
2023-05-05T11:08:29.358Z,49.64
2023-05-05T11:09:31.509Z,49.88
2023-05-05T11:10:44.135Z,49.15
2023-05-05T11:12:01.976Z,51.27
2023-05-05T11:13:03.664Z,49.64
2023-05-05T11:14:22.388Z,49.39
2023-05-05T11:15:24.022Z,49.67
2023-05-05T11:16:46.038Z,50.20
2023-05-05T11:17:47.877Z,50.46
2023-05-05T11:18:49.736Z,49.20
2023-05-05T11:19:52.614Z,48.86
2023-05-05T11:21:00.014Z,50.25
2023-05-05T11:22:01.968Z,49.36
2023-05-05T11:23:03.603Z,49.65
2023-05-05T11:24:27.765Z,50.06
2023-05-05T11:25:39.129Z,50.25
2023-05-05T11:26:51.531Z,49.79
2023-05-05T11:28:09.688Z,49.74
2023-05-05T11:29:11.387Z,48.87
2023-05-05T11:30:13.576Z,48.88
2023-05-05T11:31:15.709Z,49.50
2023-05-05T11:32:17.350Z,48.59
2023-05-05T11:33:38.587Z,47.36
2023-05-05T11:34:49.905Z,48.32
2023-05-05T11:36:06.515Z,47.35
2023-05-05T11:37:08.760Z,48.09
2023-05-05T11:38:10.355Z,48.52
2023-05-05T11:39:17.720Z,47.89
2023-05-05T11:40:24.361Z,47.36
2023-05-05T11:41:34.502Z,47.53
2023-05-05T11:42:36.220Z,47.98
2023-05-05T11:43:37.978Z,46.97
2023-05-05T11:44:39.632Z,47.13
2023-05-05T11:45:41.676Z,48.15
2023-05-05T11:46:52.200Z,46.25
2023-05-05T11:48:16.283Z,47.18
2023-05-05T11:49:29.986Z,47.76
2023-05-05T11:50:32.291Z,46.68
2023-05-05T11:51:33.976Z,46.62
2023-05-05T11:52:35.582Z,47.67
2023-05-05T11:53:37.181Z,48.27
2023-05-05T11:54:50.223Z,47.67
2023-05-05T11:56:06.488Z,47.64
2023-05-05T11:57:09.076Z,46.19
2023-05-05T11:58:20.578Z,46.51
2023-05-05T11:59:22.265Z,46.92
2023-05-05T12:00:33.930Z,47.01
2023-05-05T12:01:40.721Z,46.76
2023-05-05T12:02:42.437Z,46.41
2023-05-05T12:03:45.885Z,46.59
2023-05-05T12:04:48.120Z,47.25
2023-05-05T12:05:49.725Z,49.26
2023-05-05T12:06:51.561Z,47.27
2023-05-05T12:07:57.096Z,47.87
2023-05-05T12:08:58.707Z,47.94
2023-05-05T12:10:00.425Z,46.96
2023-05-05T12:11:08.452Z,46.89
2023-05-05T12:12:10.096Z,46.74
2023-05-05T12:13:21.176Z,46.00
2023-05-05T12:14:23.575Z,46.61
2023-05-05T12:15:29.806Z,45.92
2023-05-05T12:16:31.439Z,46.29
2023-05-05T12:17:40.489Z,45.66
2023-05-05T12:18:42.294Z,45.76
2023-05-05T12:19:48.096Z,46.35
2023-05-05T12:20:49.736Z,45.96
2023-05-05T12:21:54.193Z,45.21
2023-05-05T12:23:05.232Z,45.94
2023-05-05T12:24:07.393Z,47.00
2023-05-05T12:25:09.575Z,45.65
2023-05-05T12:26:27.650Z,45.88
2023-05-05T12:27:29.356Z,46.10
2023-05-05T12:28:44.248Z,46.12
2023-05-05T12:29:45.918Z,46.12
2023-05-05T12:30:57.811Z,46.55
2023-05-05T12:32:00.372Z,45.44
2023-05-05T12:33:03.481Z,45.73
2023-05-05T12:34:06.295Z,45.01
2023-05-05T12:35:08.676Z,45.48
2023-05-05T12:36:10.298Z,45.19
2023-05-05T12:37:12.275Z,44.73
2023-05-05T12:38:16.081Z,44.95
2023-05-05T12:39:17.708Z,45.26
2023-05-05T12:40:45.130Z,45.68
2023-05-05T12:41:46.913Z,45.93
2023-05-05T12:42:48.497Z,47.17
2023-05-05T12:43:57.889Z,45.87
2023-05-05T12:44:59.598Z,44.99
2023-05-05T12:46:08.463Z,46.52
2023-05-05T12:47:11.478Z,45.45
2023-05-05T12:48:22.593Z,45.88
2023-05-05T12:49:24.203Z,46.31
2023-05-05T12:50:32.267Z,46.35
2023-05-05T12:51:34.668Z,45.50
2023-05-05T12:52:43.678Z,44.32
2023-05-05T12:53:48.749Z,44.95
2023-05-05T12:55:06.014Z,46.41
2023-05-05T12:56:31.150Z,45.65
2023-05-05T12:57:32.775Z,45.31
2023-05-05T12:58:48.653Z,44.66
2023-05-05T12:59:51.110Z,45.90
2023-05-05T13:01:08.446Z,45.09
2023-05-05T13:02:10.138Z,45.06
2023-05-05T13:03:21.225Z,45.42
2023-05-05T13:04:24.176Z,45.52
2023-05-05T13:05:32.751Z,45.40
2023-05-05T13:06:34.603Z,44.94
2023-05-05T13:07:36.610Z,44.65
2023-05-05T13:08:44.211Z,45.44
2023-05-05T13:09:47.230Z,44.64
2023-05-05T13:10:58.745Z,44.26
2023-05-05T13:12:02.936Z,45.17
2023-05-05T13:13:05.077Z,44.20
2023-05-05T13:14:07.010Z,45.01
2023-05-05T13:15:09.666Z,44.27
2023-05-05T13:16:11.530Z,44.60
2023-05-05T13:17:14.023Z,44.62
2023-05-05T13:18:15.628Z,44.77
2023-05-05T13:19:17.275Z,44.17
2023-05-05T13:20:18.940Z,43.98
2023-05-05T13:21:20.549Z,44.13
2023-05-05T13:22:22.303Z,43.88
2023-05-05T13:23:25.709Z,43.21
2023-05-05T13:24:38.582Z,42.76
2023-05-05T13:25:48.628Z,41.69
2023-05-05T13:26:50.937Z,41.64
2023-05-05T13:27:52.562Z,42.83
2023-05-05T13:28:54.582Z,41.63
2023-05-05T13:29:56.241Z,40.82
2023-05-05T13:30:58.849Z,41.45
2023-05-05T13:32:00.543Z,41.53
2023-05-05T13:33:03.396Z,40.83
2023-05-05T13:34:05.149Z,40.94
2023-05-05T13:35:07.601Z,41.38
2023-05-05T13:36:09.469Z,41.12
2023-05-05T13:37:11.138Z,41.14
2023-05-05T13:38:12.839Z,41.82
2023-05-05T13:39:14.467Z,41.95
2023-05-05T13:40:16.112Z,42.41
2023-05-05T13:41:17.700Z,41.86
2023-05-05T13:42:19.404Z,41.67
2023-05-05T13:43:21.129Z,42.07
2023-05-05T13:44:22.724Z,39.66
2023-05-05T13:45:24.373Z,38.34
2023-05-05T13:46:26.059Z,38.16
2023-05-05T13:47:27.738Z,38.02